createdAt,value
2022-08-17T00:02:25.297Z,96645.16
2022-08-17T00:04:54.810Z,96641.56
2022-08-17T00:07:21.514Z,96642.81
2022-08-17T00:09:48.266Z,96640.41
2022-08-17T00:12:40.799Z,96649.94
2022-08-17T00:15:01.717Z,96653.75
2022-08-17T00:17:28.479Z,96646.31
2022-08-17T00:19:55.044Z,96655.53
2022-08-17T00:22:32.472Z,96654.06
2022-08-17T00:25:07.301Z,96647.78
2022-08-17T00:27:34.454Z,96655.44
2022-08-17T00:30:01.037Z,96664.00
2022-08-17T00:33:15.194Z,96654.06
2022-08-17T00:35:17.641Z,96656.38
2022-08-17T00:37:44.204Z,96647.13
2022-08-17T00:40:13.122Z,96639.53
2022-08-17T00:42:40.394Z,96646.00
2022-08-17T00:45:10.106Z,96643.09
2022-08-17T00:47:36.636Z,96637.31
2022-08-17T00:50:05.789Z,96637.41
2022-08-17T00:52:36.227Z,96633.00
2022-08-17T00:55:03.748Z,96637.47
2022-08-17T00:57:40.359Z,96633.81
2022-08-17T01:00:15.804Z,96635.31
2022-08-17T01:02:44.477Z,96627.91
2022-08-17T01:05:20.686Z,96628.63
2022-08-17T01:07:50.672Z,96627.03
2022-08-17T01:11:00.678Z,96630.16
2022-08-17T01:13:10.233Z,96629.94
2022-08-17T01:15:41.399Z,96629.13
2022-08-17T01:18:14.077Z,96623.56
2022-08-17T01:21:04.192Z,96629.13
2022-08-17T01:23:30.940Z,96630.09
2022-08-17T01:25:59.854Z,96629.16
2022-08-17T01:28:53.178Z,96627.22
2022-08-17T01:31:17.672Z,96634.16
2022-08-17T01:33:44.539Z,96619.69
2022-08-17T01:36:11.174Z,96626.22
2022-08-17T01:38:38.368Z,96620.28
2022-08-17T01:41:14.283Z,96633.63
2022-08-17T01:43:48.660Z,96634.31
2022-08-17T01:46:20.105Z,96638.75
2022-08-17T01:48:47.554Z,96635.28
2022-08-17T01:51:15.641Z,96637.06
2022-08-17T01:53:46.190Z,96645.50
2022-08-17T01:56:16.330Z,96644.13
2022-08-17T01:58:43.464Z,96639.84
2022-08-17T02:01:10.614Z,96643.44
2022-08-17T02:03:38.056Z,96637.78
2022-08-17T02:06:06.056Z,96636.38
2022-08-17T02:09:01.622Z,96641.13
2022-08-17T02:11:30.568Z,96644.50
2022-08-17T02:14:03.343Z,96645.31
2022-08-17T02:16:37.027Z,96633.50
2022-08-17T02:19:07.497Z,96640.88
2022-08-17T02:21:34.909Z,96636.34
2022-08-17T02:24:01.699Z,96634.53
2022-08-17T02:26:28.376Z,96633.25
2022-08-17T02:28:55.028Z,96627.94
2022-08-17T02:31:21.655Z,96637.19
2022-08-17T02:33:56.680Z,96641.03
2022-08-17T02:36:31.168Z,96641.34
2022-08-17T02:38:58.692Z,96634.88
2022-08-17T02:41:25.514Z,96638.56
2022-08-17T02:43:53.197Z,96632.53
2022-08-17T02:46:19.793Z,96637.75
2022-08-17T02:48:46.455Z,96628.28
2022-08-17T02:51:13.040Z,96623.06
2022-08-17T02:53:39.604Z,96633.81
2022-08-17T02:56:06.367Z,96636.25
2022-08-17T02:58:34.920Z,96626.72
2022-08-17T03:01:03.308Z,96624.66
2022-08-17T03:03:30.063Z,96623.75
2022-08-17T03:05:56.666Z,96624.09
2022-08-17T03:08:23.894Z,96624.44
2022-08-17T03:10:50.581Z,96613.91
2022-08-17T03:13:17.693Z,96623.66
2022-08-17T03:15:45.872Z,96616.13
2022-08-17T03:18:19.078Z,96623.88
2022-08-17T03:20:52.351Z,96618.44
2022-08-17T03:23:18.979Z,96625.94
2022-08-17T03:25:53.062Z,96620.50
2022-08-17T03:28:20.851Z,96625.00
2022-08-17T03:30:47.419Z,96626.03
2022-08-17T03:33:14.311Z,96624.06
2022-08-17T03:35:41.740Z,96620.72
2022-08-17T03:38:10.300Z,96625.09
2022-08-17T03:40:56.853Z,96632.72
2022-08-17T03:43:24.324Z,96628.22
2022-08-17T03:46:28.896Z,96627.53
2022-08-17T03:49:15.666Z,96624.03
2022-08-17T03:52:00.878Z,96617.50
2022-08-17T03:54:45.919Z,96621.63
2022-08-17T03:57:13.101Z,96629.28
2022-08-17T03:59:40.864Z,96619.09
2022-08-17T04:02:20.474Z,96624.78
2022-08-17T04:04:50.913Z,96622.81
2022-08-17T04:07:19.579Z,96630.91
2022-08-17T04:09:46.123Z,96625.00
2022-08-17T04:12:15.289Z,96613.66
2022-08-17T04:14:52.609Z,96624.88
2022-08-17T04:17:25.908Z,96629.38
2022-08-17T04:19:53.975Z,96633.44
2022-08-17T04:22:30.042Z,96634.59
2022-08-17T04:25:01.313Z,96636.09
2022-08-17T04:27:27.887Z,96629.97
2022-08-17T04:29:55.963Z,96641.34
2022-08-17T04:32:58.504Z,96644.09
2022-08-17T04:35:09.940Z,96644.09
2022-08-17T04:37:36.541Z,96639.47
2022-08-17T04:40:22.706Z,96641.22
2022-08-17T04:43:07.550Z,96643.66
2022-08-17T04:45:34.957Z,96640.31
2022-08-17T04:48:01.616Z,96648.50
2022-08-17T04:50:28.297Z,96645.75
2022-08-17T04:52:55.181Z,96642.28
2022-08-17T04:55:22.137Z,96642.53
2022-08-17T04:57:48.813Z,96645.75
2022-08-17T05:00:15.680Z,96641.47
2022-08-17T05:02:50.600Z,96651.78
2022-08-17T05:05:21.898Z,96649.22
2022-08-17T05:07:52.654Z,96645.84
2022-08-17T05:10:20.027Z,96649.94
2022-08-17T05:12:46.639Z,96651.69
2022-08-17T05:15:16.174Z,96653.06
2022-08-17T05:17:43.432Z,96656.50
2022-08-17T05:20:10.452Z,96664.97
2022-08-17T05:22:58.684Z,96667.25
2022-08-17T05:25:33.303Z,96653.13
2022-08-17T05:28:03.213Z,96654.47
2022-08-17T05:30:29.976Z,96653.03
2022-08-17T05:32:59.772Z,96645.50
2022-08-17T05:35:28.088Z,96637.94
2022-08-17T05:37:54.839Z,96640.19
2022-08-17T05:40:25.918Z,96639.59
2022-08-17T05:43:03.875Z,96645.03
2022-08-17T05:45:54.824Z,96637.06
2022-08-17T05:48:18.223Z,96633.69
2022-08-17T05:51:20.065Z,96643.06
2022-08-17T05:53:47.728Z,96629.47
2022-08-17T05:56:29.823Z,96629.19
2022-08-17T05:59:23.325Z,96631.38
2022-08-17T06:02:02.976Z,96632.03
2022-08-17T06:05:02.733Z,96640.56
2022-08-17T06:07:47.908Z,96641.75
2022-08-17T06:10:23.370Z,96630.41
2022-08-17T06:13:09.569Z,96629.53
2022-08-17T06:16:33.341Z,96631.88
2022-08-17T06:19:17.784Z,96633.00
2022-08-17T06:21:49.280Z,96636.44
2022-08-17T06:24:34.296Z,96627.03
2022-08-17T06:27:33.175Z,96634.13
2022-08-17T06:30:09.294Z,96635.00
2022-08-17T06:32:42.586Z,96640.50
2022-08-17T06:35:12.834Z,96641.88
2022-08-17T06:37:59.651Z,96636.00
2022-08-17T06:40:26.223Z,96629.69
2022-08-17T06:43:48.423Z,96635.59
2022-08-17T06:46:27.543Z,96629.97
2022-08-17T06:48:57.027Z,96630.59
2022-08-17T06:51:29.403Z,96631.97
2022-08-17T06:54:05.735Z,96633.66
2022-08-17T06:56:55.312Z,96638.81
2022-08-17T06:59:54.799Z,96636.16
2022-08-17T07:02:52.249Z,96640.25
2022-08-17T07:05:21.896Z,96632.31
2022-08-17T07:08:02.307Z,96634.75
2022-08-17T07:10:41.411Z,96634.25
2022-08-17T07:13:19.435Z,96639.38
2022-08-17T07:15:47.426Z,96626.47
2022-08-17T07:18:14.215Z,96625.94
2022-08-17T07:20:42.903Z,96625.31
2022-08-17T07:23:22.711Z,96626.72
2022-08-17T07:25:50.345Z,96626.41
2022-08-17T07:28:22.909Z,96630.63
2022-08-17T07:30:54.118Z,96625.84
2022-08-17T07:33:27.488Z,96633.41
2022-08-17T07:35:54.302Z,96621.56
2022-08-17T07:38:26.892Z,96625.84
2022-08-17T07:41:05.230Z,96633.66
2022-08-17T07:43:45.696Z,96634.13
2022-08-17T07:46:53.761Z,96639.16
2022-08-17T07:49:32.431Z,96634.63
2022-08-17T07:52:24.044Z,96641.88
2022-08-17T07:54:49.134Z,96637.97
2022-08-17T07:57:15.707Z,96646.00
2022-08-17T08:00:12.614Z,96649.00
2022-08-17T08:02:47.336Z,96644.56
2022-08-17T08:05:31.723Z,96648.09
2022-08-17T08:08:42.319Z,96640.28
2022-08-17T08:11:13.111Z,96639.47
2022-08-17T08:13:43.616Z,96646.69
2022-08-17T08:16:15.190Z,96642.22
2022-08-17T08:18:55.770Z,96645.41
2022-08-17T08:21:47.223Z,96654.88
2022-08-17T08:24:30.802Z,96653.66
2022-08-17T08:27:35.687Z,96639.00
2022-08-17T08:30:33.091Z,96643.47
2022-08-17T08:33:56.232Z,96642.28
2022-08-17T08:37:12.748Z,96639.53
2022-08-17T08:39:52.047Z,96645.00
2022-08-17T08:42:33.222Z,96646.81
2022-08-17T08:45:04.485Z,96654.22
2022-08-17T08:47:35.407Z,96648.84
2022-08-17T08:50:37.653Z,96642.22
2022-08-17T08:53:43.606Z,96645.00
2022-08-17T08:56:16.182Z,96645.16
2022-08-17T08:59:21.433Z,96641.75
2022-08-17T09:02:16.717Z,96650.06
2022-08-17T09:05:14.444Z,96642.00
2022-08-17T09:07:49.782Z,96646.66
2022-08-17T09:10:29.804Z,96642.00
2022-08-17T09:13:10.275Z,96638.59
2022-08-17T09:15:47.115Z,96648.81
2022-08-17T09:19:02.448Z,96655.66
2022-08-17T09:21:14.900Z,96652.53
2022-08-17T09:23:59.421Z,96654.78
2022-08-17T09:26:30.455Z,96652.91
2022-08-17T09:29:06.997Z,96647.81
2022-08-17T09:31:46.500Z,96655.53
2022-08-17T09:34:18.326Z,96656.63
2022-08-17T09:36:52.086Z,96658.44
2022-08-17T09:39:31.027Z,96662.38
2022-08-17T09:42:08.416Z,96663.63
2022-08-17T09:44:41.214Z,96662.09
2022-08-17T09:47:12.766Z,96657.91
2022-08-17T09:49:47.448Z,96667.22
2022-08-17T09:52:18.133Z,96663.88
2022-08-17T09:54:45.421Z,96658.75
2022-08-17T09:57:30.347Z,96653.88
2022-08-17T09:59:57.140Z,96664.34
2022-08-17T10:02:38.592Z,96653.16
2022-08-17T10:05:15.289Z,96657.59
2022-08-17T10:07:47.661Z,96669.16
2022-08-17T10:10:26.162Z,96669.59
2022-08-17T10:13:01.706Z,96675.59
2022-08-17T10:15:33.458Z,96659.91
2022-08-17T10:18:18.940Z,96657.25
2022-08-17T10:21:25.110Z,96649.94
2022-08-17T10:24:15.853Z,96650.72
2022-08-17T10:26:57.248Z,96634.69
2022-08-17T10:29:48.984Z,96635.91
2022-08-17T10:32:46.553Z,96646.47
2022-08-17T10:35:29.554Z,96636.84
2022-08-17T10:38:15.413Z,96634.16
2022-08-17T10:41:07.257Z,96637.78
2022-08-17T10:44:28.561Z,96641.63
2022-08-17T10:47:02.792Z,96644.59
2022-08-17T10:49:54.056Z,96637.16
2022-08-17T10:52:20.973Z,96646.94
2022-08-17T10:54:59.048Z,96645.06
2022-08-17T10:57:34.449Z,96647.19
2022-08-17T11:00:03.632Z,96652.66
2022-08-17T11:02:41.306Z,96654.44
2022-08-17T11:05:28.951Z,96646.44
2022-08-17T11:08:05.492Z,96653.28
2022-08-17T11:11:09.216Z,96651.06
2022-08-17T11:14:17.325Z,96642.13
2022-08-17T11:17:20.614Z,96653.34
2022-08-17T11:20:20.313Z,96654.25
2022-08-17T11:23:14.746Z,96655.06
2022-08-17T11:26:04.112Z,96667.69
2022-08-17T11:28:44.415Z,96668.75
2022-08-17T11:31:38.386Z,96672.38
2022-08-17T11:34:12.117Z,96668.97
2022-08-17T11:36:48.980Z,96682.13
2022-08-17T11:39:24.491Z,96674.91
2022-08-17T11:42:19.968Z,96678.88
2022-08-17T11:45:32.077Z,96674.78
2022-08-17T11:48:41.464Z,96671.28
2022-08-17T11:51:33.815Z,96663.88
2022-08-17T11:54:31.783Z,96667.50
2022-08-17T11:56:53.357Z,96658.56
2022-08-17T11:59:50.293Z,96656.84
2022-08-17T12:02:19.835Z,96669.31
2022-08-17T12:05:21.027Z,96655.16
2022-08-17T12:07:54.805Z,96667.69
2022-08-17T12:10:31.613Z,96656.03
2022-08-17T12:13:00.182Z,96664.09
2022-08-17T12:15:36.699Z,96652.00
2022-08-17T12:18:03.518Z,96658.53
2022-08-17T12:20:37.303Z,96667.88
2022-08-17T12:23:21.166Z,96658.47
2022-08-17T12:25:58.198Z,96651.66
2022-08-17T12:28:27.874Z,96655.97
2022-08-17T12:31:05.485Z,96648.94
2022-08-17T12:33:32.088Z,96642.91
2022-08-17T12:36:05.437Z,96640.69
2022-08-17T12:38:37.347Z,96631.22
2022-08-17T12:41:27.467Z,96635.22
2022-08-17T12:44:01.543Z,96633.75
2022-08-17T12:46:34.807Z,96625.66
2022-08-17T12:49:32.803Z,96642.13
2022-08-17T12:52:12.690Z,96637.09
2022-08-17T12:54:48.698Z,96641.94
2022-08-17T12:57:18.596Z,96629.34
2022-08-17T12:59:49.287Z,96648.09
2022-08-17T13:02:28.394Z,96640.59
2022-08-17T13:04:57.332Z,96635.81
2022-08-17T13:07:29.086Z,96637.59
2022-08-17T13:09:55.682Z,96632.34
2022-08-17T13:12:34.575Z,96639.25
2022-08-17T13:15:01.399Z,96624.03
2022-08-17T13:17:31.880Z,96620.03
2022-08-17T13:19:58.317Z,96629.84
2022-08-17T13:22:26.480Z,96622.09
2022-08-17T13:24:58.664Z,96618.03
2022-08-17T13:27:27.145Z,96612.81
2022-08-17T13:29:57.513Z,96626.97
2022-08-17T13:32:44.308Z,96620.25
2022-08-17T13:35:50.321Z,96626.81
2022-08-17T13:38:36.539Z,96622.34
2022-08-17T13:41:04.038Z,96601.84
2022-08-17T13:43:44.440Z,96610.28
2022-08-17T13:46:22.679Z,96612.97
2022-08-17T13:49:05.301Z,96611.69
2022-08-17T13:51:43.222Z,96607.00
2022-08-17T13:54:36.640Z,96603.97
2022-08-17T13:57:06.691Z,96598.63
2022-08-17T13:59:54.804Z,96612.28
2022-08-17T14:02:23.100Z,96607.81
2022-08-17T14:04:55.634Z,96603.75
2022-08-17T14:07:27.689Z,96598.97
2022-08-17T14:09:59.018Z,96600.66
2022-08-17T14:12:28.340Z,96601.09
2022-08-17T14:14:56.392Z,96592.78
2022-08-17T14:17:24.517Z,96593.28
2022-08-17T14:19:51.485Z,96595.38
2022-08-17T14:22:31.429Z,96604.66
2022-08-17T14:24:59.142Z,96598.38
2022-08-17T14:27:28.183Z,96592.72
2022-08-17T14:29:55.661Z,96595.75
2022-08-17T14:32:25.464Z,96597.78
2022-08-17T14:34:52.766Z,96587.13
2022-08-17T14:37:21.022Z,96580.19
2022-08-17T14:39:47.679Z,96574.00
2022-08-17T14:42:15.549Z,96578.66
2022-08-17T14:44:42.095Z,96593.81
2022-08-17T14:47:15.895Z,96591.72
2022-08-17T14:49:42.578Z,96592.19
2022-08-17T14:52:10.734Z,96592.00
2022-08-17T14:54:37.651Z,96575.94
2022-08-17T14:57:24.638Z,96596.50
2022-08-17T14:59:55.129Z,96579.66
2022-08-17T15:02:29.934Z,96573.00
2022-08-17T15:05:02.055Z,96588.66
2022-08-17T15:07:30.680Z,96580.16
2022-08-17T15:09:58.754Z,96572.34
2022-08-17T15:12:32.013Z,96573.78
2022-08-17T15:15:00.648Z,96566.19
2022-08-17T15:17:27.228Z,96555.94
2022-08-17T15:20:17.838Z,96567.31
2022-08-17T15:22:45.781Z,96569.84
2022-08-17T15:25:12.961Z,96566.00
2022-08-17T15:27:40.406Z,96558.28
2022-08-17T15:30:07.877Z,96564.78
2022-08-17T15:32:37.946Z,96570.41
2022-08-17T15:35:05.976Z,96578.47
2022-08-17T15:37:32.542Z,96582.63
2022-08-17T15:40:01.247Z,96585.44
2022-08-17T15:42:27.995Z,96575.41
2022-08-17T15:44:57.373Z,96569.72
2022-08-17T15:47:24.506Z,96575.34
2022-08-17T15:49:51.095Z,96577.03
2022-08-17T15:52:29.644Z,96571.44
2022-08-17T15:54:59.799Z,96585.72
2022-08-17T15:57:27.387Z,96580.47
2022-08-17T15:59:58.397Z,96584.69
2022-08-17T16:03:45.549Z,96578.09
2022-08-17T16:05:21.922Z,96576.19
2022-08-17T16:07:51.985Z,96568.50
2022-08-17T16:10:19.422Z,96582.94
2022-08-17T16:12:47.543Z,96581.94
2022-08-17T16:15:14.702Z,96593.28
2022-08-17T16:17:44.014Z,96598.63
2022-08-17T16:20:20.357Z,96601.41
2022-08-17T16:22:48.664Z,96602.91
2022-08-17T16:25:21.090Z,96607.34
2022-08-17T16:27:53.397Z,96601.53
2022-08-17T16:30:22.973Z,96599.03
2022-08-17T16:32:51.408Z,96600.13
2022-08-17T16:35:20.515Z,96597.63
2022-08-17T16:37:47.989Z,96603.31
2022-08-17T16:40:16.660Z,96594.72
2022-08-17T16:42:45.302Z,96596.63
2022-08-17T16:45:20.956Z,96604.22
2022-08-17T16:47:50.279Z,96605.66
2022-08-17T16:50:20.523Z,96611.06
2022-08-17T16:52:48.499Z,96616.41
2022-08-17T16:55:17.990Z,96619.84
2022-08-17T16:57:48.572Z,96615.28
2022-08-17T17:00:18.252Z,96622.03
2022-08-17T17:02:47.287Z,96630.31
2022-08-17T17:05:44.817Z,96622.47
2022-08-17T17:08:26.706Z,96634.53
2022-08-17T17:10:55.909Z,96639.47
2022-08-17T17:13:29.343Z,96648.22
2022-08-17T17:16:21.748Z,96643.53
2022-08-17T17:19:09.288Z,96648.00
2022-08-17T17:21:47.360Z,96634.69
2022-08-17T17:24:17.278Z,96645.09
2022-08-17T17:27:07.323Z,96646.88
2022-08-17T17:29:48.526Z,96652.94
2022-08-17T17:32:25.599Z,96646.59
2022-08-17T17:34:58.752Z,96645.09
2022-08-17T17:37:32.601Z,96652.75
2022-08-17T17:40:04.093Z,96661.63
2022-08-17T17:42:32.234Z,96658.75
2022-08-17T17:45:32.781Z,96660.16
2022-08-17T17:47:59.302Z,96659.16
2022-08-17T17:50:51.660Z,96670.34
2022-08-17T17:53:35.207Z,96674.72
2022-08-17T17:56:43.007Z,96681.28
2022-08-17T17:59:12.750Z,96679.13
2022-08-17T18:01:59.642Z,96678.16
2022-08-17T18:04:31.894Z,96680.38
2022-08-17T18:07:10.146Z,96691.19
2022-08-17T18:10:01.250Z,96693.34
2022-08-17T18:12:44.428Z,96695.56
2022-08-17T18:15:34.788Z,96691.88
2022-08-17T18:18:14.599Z,96690.81
2022-08-17T18:20:53.137Z,96694.66
2022-08-17T18:23:27.687Z,96701.34
2022-08-17T18:25:55.063Z,96704.34
2022-08-17T18:28:31.354Z,96698.16
2022-08-17T18:31:19.243Z,96703.28
2022-08-17T18:33:52.375Z,96704.91
2022-08-17T18:36:28.205Z,96698.19
2022-08-17T18:39:17.130Z,96698.47
2022-08-17T18:41:47.319Z,96697.91
2022-08-17T18:44:38.030Z,96701.63
2022-08-17T18:47:12.968Z,96706.72
2022-08-17T18:49:40.522Z,96708.34
2022-08-17T18:52:13.086Z,96725.75
2022-08-17T18:54:39.755Z,96727.34
2022-08-17T18:57:07.607Z,96743.16
2022-08-17T18:59:43.963Z,96742.59
2022-08-17T19:02:24.867Z,96743.94
2022-08-17T19:05:09.752Z,96747.34
2022-08-17T19:07:45.226Z,96747.34
2022-08-17T19:10:28.845Z,96762.03
2022-08-17T19:13:12.546Z,96759.13
2022-08-17T19:15:47.847Z,96753.41
2022-08-17T19:18:41.506Z,96756.59
2022-08-17T19:21:17.102Z,96765.94
2022-08-17T19:24:12.208Z,96766.16
2022-08-17T19:26:54.709Z,96762.59
2022-08-17T19:29:58.116Z,96768.16
2022-08-17T19:32:31.235Z,96769.66
2022-08-17T19:34:58.183Z,96769.88
2022-08-17T19:37:32.618Z,96776.53
2022-08-17T19:40:48.944Z,96775.34
2022-08-17T19:43:43.186Z,96770.38
2022-08-17T19:46:24.563Z,96775.63
2022-08-17T19:48:54.075Z,96775.38
2022-08-17T19:51:34.261Z,96778.19
2022-08-17T19:54:09.928Z,96775.44
2022-08-17T19:56:51.687Z,96780.50
2022-08-17T19:59:35.980Z,96784.09
2022-08-17T20:02:41.976Z,96779.75
2022-08-17T20:05:15.593Z,96786.66
2022-08-17T20:07:53.329Z,96786.75
2022-08-17T20:10:48.006Z,96790.25
2022-08-17T20:13:33.179Z,96788.03
2022-08-17T20:16:01.377Z,96787.22
2022-08-17T20:18:34.015Z,96795.19
2022-08-17T20:21:21.225Z,96784.56
2022-08-17T20:23:55.884Z,96786.94
2022-08-17T20:26:28.820Z,96800.03
2022-08-17T20:29:04.393Z,96795.66
2022-08-17T20:31:52.507Z,96796.88
2022-08-17T20:34:34.860Z,96798.94
2022-08-17T20:37:06.148Z,96801.84
2022-08-17T20:39:40.674Z,96801.34
2022-08-17T20:42:10.110Z,96800.06
2022-08-17T20:44:39.127Z,96801.41
2022-08-17T20:47:07.897Z,96801.03
2022-08-17T20:49:47.239Z,96787.44
2022-08-17T20:52:18.376Z,96796.84
2022-08-17T20:54:47.131Z,96800.00
2022-08-17T20:57:43.794Z,96802.28
2022-08-17T21:00:16.840Z,96798.69
2022-08-17T21:02:49.599Z,96808.56
2022-08-17T21:05:26.118Z,96795.28
2022-08-17T21:07:59.970Z,96793.00
2022-08-17T21:10:26.447Z,96794.75
2022-08-17T21:12:59.645Z,96788.78
2022-08-17T21:15:44.966Z,96799.91
2022-08-17T21:18:39.222Z,96803.09
2022-08-17T21:21:24.447Z,96805.06
2022-08-17T21:24:15.313Z,96800.13
2022-08-17T21:27:06.578Z,96814.03
2022-08-17T21:29:34.038Z,96809.75
2022-08-17T21:32:06.671Z,96810.31
2022-08-17T21:34:42.583Z,96813.56
2022-08-17T21:37:31.099Z,96812.31
2022-08-17T21:40:12.973Z,96819.84
2022-08-17T21:42:46.795Z,96817.97
2022-08-17T21:45:35.035Z,96832.47
2022-08-17T21:48:20.166Z,96830.75
2022-08-17T21:50:57.903Z,96837.72
2022-08-17T21:53:32.697Z,96833.22
2022-08-17T21:55:59.822Z,96839.34
2022-08-17T21:58:33.721Z,96845.84
2022-08-17T22:01:25.322Z,96837.25
2022-08-17T22:04:25.808Z,96843.63
2022-08-17T22:06:57.161Z,96833.06
2022-08-17T22:09:41.393Z,96834.34
2022-08-17T22:12:16.491Z,96841.19
2022-08-17T22:14:52.889Z,96838.53
2022-08-17T22:17:35.993Z,96838.75
2022-08-17T22:20:13.092Z,96840.94
2022-08-17T22:23:04.491Z,96841.53
2022-08-17T22:25:33.313Z,96841.41
2022-08-17T22:28:02.636Z,96835.50
2022-08-17T22:30:34.464Z,96857.41
2022-08-17T22:33:22.582Z,96856.59
2022-08-17T22:35:49.905Z,96858.78
2022-08-17T22:38:18.930Z,96853.47
2022-08-17T22:40:54.343Z,96853.47
2022-08-17T22:43:26.197Z,96860.41
2022-08-17T22:45:56.078Z,96860.41
2022-08-17T22:48:27.189Z,96856.59
2022-08-17T22:51:03.107Z,96876.94
2022-08-17T22:54:04.453Z,96868.38
2022-08-17T22:56:49.885Z,96863.75
2022-08-17T22:59:36.159Z,96859.94
2022-08-17T23:02:16.422Z,96858.31
2022-08-17T23:04:47.676Z,96855.53
2022-08-17T23:07:14.682Z,96853.75
2022-08-17T23:09:41.361Z,96851.09
2022-08-17T23:12:11.612Z,96845.75
2022-08-17T23:14:40.973Z,96839.97
2022-08-17T23:17:08.341Z,96842.06
2022-08-17T23:19:35.447Z,96847.72
2022-08-17T23:22:04.287Z,96849.00
2022-08-17T23:24:35.584Z,96855.25
2022-08-17T23:27:01.996Z,96848.44
2022-08-17T23:29:29.588Z,96849.38
2022-08-17T23:31:57.923Z,96849.47
2022-08-17T23:34:25.606Z,96849.00
2022-08-17T23:36:53.145Z,96848.66
2022-08-17T23:39:24.441Z,96854.44
2022-08-17T23:41:53.513Z,96855.72
2022-08-17T23:44:23.399Z,96854.09
2022-08-17T23:46:53.520Z,96855.72
2022-08-17T23:49:20.124Z,96857.22
2022-08-17T23:51:48.024Z,96858.63
2022-08-17T23:54:26.020Z,96860.25
2022-08-17T23:56:52.892Z,96860.59
2022-08-17T23:59:21.599Z,96858.97
